Terminal Aerodrome Forecast
Issued by NWS Jacksonville, FL

Home | Current Version | Previous Version | Text Only | Print | Product List | Glossary On
Versions: 1 2 3 4 5 6 7 8 9 10 11 12 13 14 15 16 17 18 19 20 21 22
000
FTUS42 KJAX 290500
TAFJAX
TAF
KJAX 290540Z 2906/3006 24007KT P6SM FEW040 BKN250
     FM291200 28008KT P6SM VCSH SCT030 BKN200
     FM291700 29007KT P6SM SCT050
     FM292300 VRB04KT P6SM FEW250=

USA.gov is the U.S. government's official web portal to all federal, state and local government web resources and services.